sensor_id;sensor_type;location;lat;lon;timestamp;P1;durP1;ratioP1;P2;durP2;ratioP2
77248;SDS011;66280;45.124;20.718;2023-02-03T00:08:50;5.53;;;2.37;;
77248;SDS011;66280;45.124;20.718;2023-02-03T00:18:52;6.07;;;2.77;;
77248;SDS011;66280;45.124;20.718;2023-02-03T00:28:52;8.47;;;3.53;;
77248;SDS011;66280;45.124;20.718;2023-02-03T00:38:53;2.17;;;1.77;;
77248;SDS011;66280;45.124;20.718;2023-02-03T00:48:54;2.40;;;1.83;;
77248;SDS011;66280;45.124;20.718;2023-02-03T00:58:54;2.55;;;1.92;;
77248;SDS011;66280;45.124;20.718;2023-02-03T01:08:55;6.28;;;2.92;;
77248;SDS011;66280;45.124;20.718;2023-02-03T01:18:55;3.73;;;2.00;;
77248;SDS011;66280;45.124;20.718;2023-02-03T01:28:57;3.92;;;1.58;;
77248;SDS011;66280;45.124;20.718;2023-02-03T01:38:59;4.23;;;1.87;;
77248;SDS011;66280;45.124;20.718;2023-02-03T01:49:07;3.27;;;1.90;;
77248;SDS011;66280;45.124;20.718;2023-02-03T01:59:21;2.03;;;1.30;;
77248;SDS011;66280;45.124;20.718;2023-02-03T02:09:24;5.23;;;1.80;;
77248;SDS011;66280;45.124;20.718;2023-02-03T02:50:39;3.78;;;2.25;;
77248;SDS011;66280;45.124;20.718;2023-02-03T03:00:41;2.97;;;1.70;;
77248;SDS011;66280;45.124;20.718;2023-02-03T03:10:42;5.37;;;1.70;;
77248;SDS011;66280;45.124;20.718;2023-02-03T03:20:44;2.57;;;1.70;;
77248;SDS011;66280;45.124;20.718;2023-02-03T03:30:46;4.03;;;1.87;;
77248;SDS011;66280;45.124;20.718;2023-02-03T03:40:51;2.93;;;1.83;;
77248;SDS011;66280;45.124;20.718;2023-02-03T03:51:37;4.72;;;1.60;;
77248;SDS011;66280;45.124;20.718;2023-02-03T04:01:19;5.07;;;2.30;;
77248;SDS011;66280;45.124;20.718;2023-02-03T04:11:20;4.80;;;2.63;;
77248;SDS011;66280;45.124;20.718;2023-02-03T04:21:21;3.70;;;2.43;;
77248;SDS011;66280;45.124;20.718;2023-02-03T04:31:22;4.30;;;2.70;;
77248;SDS011;66280;45.124;20.718;2023-02-03T04:41:22;2.93;;;2.07;;
77248;SDS011;66280;45.124;20.718;2023-02-03T04:51:23;4.27;;;2.37;;
77248;SDS011;66280;45.124;20.718;2023-02-03T05:01:24;3.03;;;1.80;;
77248;SDS011;66280;45.124;20.718;2023-02-03T05:11:25;3.50;;;1.87;;
77248;SDS011;66280;45.124;20.718;2023-02-03T05:21:25;3.00;;;2.20;;
77248;SDS011;66280;45.124;20.718;2023-02-03T05:31:26;7.50;;;2.83;;
77248;SDS011;66280;45.124;20.718;2023-02-03T05:41:27;4.20;;;2.53;;
77248;SDS011;66280;45.124;20.718;2023-02-03T05:51:27;4.60;;;2.83;;
77248;SDS011;66280;45.124;20.718;2023-02-03T06:01:28;7.03;;;3.10;;
77248;SDS011;66280;45.124;20.718;2023-02-03T06:11:29;4.77;;;2.63;;
77248;SDS011;66280;45.124;20.718;2023-02-03T06:21:30;4.25;;;2.35;;
77248;SDS011;66280;45.124;20.718;2023-02-03T06:31:31;6.60;;;3.00;;
77248;SDS011;66280;45.124;20.718;2023-02-03T06:41:31;10.30;;;5.97;;
77248;SDS011;66280;45.124;20.718;2023-02-03T06:51:32;23.57;;;10.10;;
77248;SDS011;66280;45.124;20.718;2023-02-03T07:01:33;22.03;;;10.13;;
77248;SDS011;66280;45.124;20.718;2023-02-03T07:11:34;11.23;;;6.17;;
77248;SDS011;66280;45.124;20.718;2023-02-03T07:21:34;5.77;;;4.33;;
77248;SDS011;66280;45.124;20.718;2023-02-03T07:31:35;8.23;;;5.70;;
77248;SDS011;66280;45.124;20.718;2023-02-03T07:41:36;18.20;;;9.37;;
77248;SDS011;66280;45.124;20.718;2023-02-03T07:51:36;16.63;;;8.60;;
77248;SDS011;66280;45.124;20.718;2023-02-03T08:01:37;7.97;;;5.70;;
77248;SDS011;66280;45.124;20.718;2023-02-03T08:11:38;281.83;;;29.00;;
77248;SDS011;66280;45.124;20.718;2023-02-03T08:21:38;12.35;;;4.75;;
77248;SDS011;66280;45.124;20.718;2023-02-03T08:31:40;8.65;;;4.40;;
77248;SDS011;66280;45.124;20.718;2023-02-03T08:41:42;4.83;;;3.10;;
77248;SDS011;66280;45.124;20.718;2023-02-03T08:51:46;7.10;;;4.20;;
77248;SDS011;66280;45.124;20.718;2023-02-03T09:01:47;5.57;;;3.80;;
77248;SDS011;66280;45.124;20.718;2023-02-03T09:11:48;6.10;;;4.47;;
77248;SDS011;66280;45.124;20.718;2023-02-03T09:21:48;3.63;;;2.50;;
77248;SDS011;66280;45.124;20.718;2023-02-03T09:31:49;5.23;;;3.10;;
77248;SDS011;66280;45.124;20.718;2023-02-03T09:41:55;4.85;;;3.65;;
77248;SDS011;66280;45.124;20.718;2023-02-03T10:13:05;7.82;;;4.47;;
77248;SDS011;66280;45.124;20.718;2023-02-03T10:23:19;10.07;;;4.80;;
77248;SDS011;66280;45.124;20.718;2023-02-03T10:33:32;12.03;;;8.43;;
77248;SDS011;66280;45.124;20.718;2023-02-03T10:43:32;6.30;;;4.20;;
77248;SDS011;66280;45.124;20.718;2023-02-03T10:53:34;12.93;;;8.03;;
77248;SDS011;66280;45.124;20.718;2023-02-03T11:03:35;4.47;;;3.87;;
77248;SDS011;66280;45.124;20.718;2023-02-03T11:13:37;7.23;;;5.00;;
77248;SDS011;66280;45.124;20.718;2023-02-03T11:24:21;6.03;;;4.70;;
77248;SDS011;66280;45.124;20.718;2023-02-03T11:34:21;15.90;;;8.80;;
77248;SDS011;66280;45.124;20.718;2023-02-03T11:44:26;6.03;;;4.60;;
77248;SDS011;66280;45.124;20.718;2023-02-03T11:54:31;4.65;;;4.07;;
77248;SDS011;66280;45.124;20.718;2023-02-03T12:35:58;15.07;;;10.60;;
77248;SDS011;66280;45.124;20.718;2023-02-03T12:46:18;3.72;;;3.42;;
77248;SDS011;66280;45.124;20.718;2023-02-03T12:56:25;5.80;;;3.20;;
77248;SDS011;66280;45.124;20.718;2023-02-03T13:06:34;6.43;;;4.20;;
77248;SDS011;66280;45.124;20.718;2023-02-03T13:16:44;25.33;;;13.33;;
77248;SDS011;66280;45.124;20.718;2023-02-03T13:47:02;20.07;;;13.37;;
77248;SDS011;66280;45.124;20.718;2023-02-03T13:57:04;47.40;;;32.87;;
77248;SDS011;66280;45.124;20.718;2023-02-03T14:07:32;59.07;;;24.80;;
77248;SDS011;66280;45.124;20.718;2023-02-03T14:27:35;9.83;;;5.80;;
77248;SDS011;66280;45.124;20.718;2023-02-03T14:37:35;56.63;;;21.23;;
77248;SDS011;66280;45.124;20.718;2023-02-03T14:57:51;26.00;;;12.93;;
77248;SDS011;66280;45.124;20.718;2023-02-03T15:07:53;25.98;;;13.95;;
77248;SDS011;66280;45.124;20.718;2023-02-03T15:17:55;37.10;;;16.27;;
77248;SDS011;66280;45.124;20.718;2023-02-03T15:28:13;64.33;;;19.83;;
77248;SDS011;66280;45.124;20.718;2023-02-03T15:38:26;66.13;;;25.08;;
77248;SDS011;66280;45.124;20.718;2023-02-03T15:48:31;49.43;;;21.00;;
77248;SDS011;66280;45.124;20.718;2023-02-03T15:58:46;117.13;;;52.23;;
77248;SDS011;66280;45.124;20.718;2023-02-03T16:08:47;202.48;;;78.82;;
77248;SDS011;66280;45.124;20.718;2023-02-03T16:18:49;168.60;;;52.70;;
77248;SDS011;66280;45.124;20.718;2023-02-03T16:29:14;138.13;;;47.73;;
77248;SDS011;66280;45.124;20.718;2023-02-03T16:39:17;110.90;;;40.83;;
77248;SDS011;66280;45.124;20.718;2023-02-03T16:49:18;75.32;;;30.33;;
77248;SDS011;66280;45.124;20.718;2023-02-03T16:59:18;155.32;;;53.17;;
77248;SDS011;66280;45.124;20.718;2023-02-03T17:09:19;114.87;;;43.27;;
77248;SDS011;66280;45.124;20.718;2023-02-03T17:19:19;86.65;;;32.47;;
77248;SDS011;66280;45.124;20.718;2023-02-03T17:29:20;86.32;;;33.15;;
77248;SDS011;66280;45.124;20.718;2023-02-03T17:39:21;81.73;;;27.13;;
77248;SDS011;66280;45.124;20.718;2023-02-03T17:49:21;72.43;;;28.83;;
77248;SDS011;66280;45.124;20.718;2023-02-03T17:59:22;69.32;;;28.73;;
77248;SDS011;66280;45.124;20.718;2023-02-03T18:09:22;74.73;;;29.53;;
77248;SDS011;66280;45.124;20.718;2023-02-03T18:19:23;101.78;;;38.13;;
77248;SDS011;66280;45.124;20.718;2023-02-03T18:29:23;67.13;;;30.33;;
77248;SDS011;66280;45.124;20.718;2023-02-03T18:39:27;101.00;;;35.83;;
77248;SDS011;66280;45.124;20.718;2023-02-03T18:49:27;29.40;;;10.47;;
77248;SDS011;66280;45.124;20.718;2023-02-03T18:59:28;223.67;;;113.07;;
77248;SDS011;66280;45.124;20.718;2023-02-03T19:09:28;44.23;;;19.27;;
77248;SDS011;66280;45.124;20.718;2023-02-03T19:19:29;28.50;;;14.00;;
77248;SDS011;66280;45.124;20.718;2023-02-03T19:29:30;11.33;;;7.37;;
77248;SDS011;66280;45.124;20.718;2023-02-03T19:39:30;16.00;;;8.77;;
77248;SDS011;66280;45.124;20.718;2023-02-03T19:49:31;23.30;;;13.87;;
77248;SDS011;66280;45.124;20.718;2023-02-03T19:59:32;18.90;;;12.43;;
77248;SDS011;66280;45.124;20.718;2023-02-03T20:09:32;31.67;;;20.60;;
77248;SDS011;66280;45.124;20.718;2023-02-03T20:19:33;21.03;;;13.13;;
77248;SDS011;66280;45.124;20.718;2023-02-03T20:29:33;17.92;;;13.00;;
77248;SDS011;66280;45.124;20.718;2023-02-03T20:39:35;18.92;;;11.30;;
77248;SDS011;66280;45.124;20.718;2023-02-03T20:49:36;22.27;;;13.48;;
77248;SDS011;66280;45.124;20.718;2023-02-03T20:59:36;17.47;;;10.40;;
77248;SDS011;66280;45.124;20.718;2023-02-03T21:09:37;20.33;;;10.80;;
77248;SDS011;66280;45.124;20.718;2023-02-03T21:19:37;46.03;;;24.30;;
77248;SDS011;66280;45.124;20.718;2023-02-03T21:29:38;66.38;;;40.15;;
77248;SDS011;66280;45.124;20.718;2023-02-03T21:39:39;31.38;;;18.90;;
77248;SDS011;66280;45.124;20.718;2023-02-03T21:49:40;19.27;;;13.80;;
77248;SDS011;66280;45.124;20.718;2023-02-03T21:59:41;19.83;;;12.75;;
77248;SDS011;66280;45.124;20.718;2023-02-03T22:09:42;16.63;;;10.27;;
77248;SDS011;66280;45.124;20.718;2023-02-03T22:19:42;20.58;;;8.27;;
77248;SDS011;66280;45.124;20.718;2023-02-03T22:29:43;12.30;;;8.37;;
77248;SDS011;66280;45.124;20.718;2023-02-03T22:39:45;14.07;;;8.93;;
77248;SDS011;66280;45.124;20.718;2023-02-03T22:49:45;12.77;;;9.25;;
77248;SDS011;66280;45.124;20.718;2023-02-03T22:59:46;10.17;;;6.27;;
77248;SDS011;66280;45.124;20.718;2023-02-03T23:09:47;11.32;;;6.32;;
77248;SDS011;66280;45.124;20.718;2023-02-03T23:19:47;10.85;;;6.45;;
77248;SDS011;66280;45.124;20.718;2023-02-03T23:29:48;15.47;;;9.67;;
77248;SDS011;66280;45.124;20.718;2023-02-03T23:39:49;15.43;;;7.77;;
77248;SDS011;66280;45.124;20.718;2023-02-03T23:49:49;13.63;;;8.50;;
77248;SDS011;66280;45.124;20.718;2023-02-03T23:59:53;14.52;;;8.10;;
